Time;durP1;ratioP1;P1;durP2;ratioP2;P2;SDS_P1;SDS_P2;PMS_P1;PMS_P2;Temp;Humidity;BMP_temperature;BMP_pressure;BME280_temperature;BME280_humidity;BME280_pressure;Samples;Min_cycle;Max_cycle;Signal;HPM_P1;HPM_P2
2023/06/14 00:00:48;;;;;;;2.58;1.20;;;;;;;17.25;100.00;100194.13;4987365;28;20077;-76
2023/06/14 00:03:17;;;;;;;3.47;2.22;;;;;;;17.33;100.00;100234.56;4989604;28;20059;-76
2023/06/14 00:05:43;;;;;;;4.53;1.90;;;;;;;17.16;100.00;100202.38;4989384;28;20393;-77
2023/06/14 00:08:09;;;;;;;3.72;1.55;;;;;;;17.85;100.00;100307.25;4989237;28;20028;-75
2023/06/14 00:10:36;;;;;;;3.15;1.70;;;;;;;17.02;100.00;100155.06;4992451;28;20513;-75
2023/06/14 00:13:04;;;;;;;2.88;1.65;;;;;;;16.93;100.00;100192.44;4987929;28;20054;-75
2023/06/14 00:15:33;;;;;;;4.28;3.40;;;;;;;17.78;100.00;100299.50;4982055;28;20050;-75
2023/06/14 00:18:02;;;;;;;2.47;1.20;;;;;;;17.60;100.00;100277.06;4991451;28;20124;-74
2023/06/14 00:20:28;;;;;;;2.80;1.52;;;;;;;17.69;100.00;100298.00;4987058;28;20045;-73
2023/06/14 00:22:55;;;;;;;2.53;1.30;;;;;;;17.63;100.00;100282.25;4987082;28;20042;-73
2023/06/14 00:25:27;;;;;;;3.83;1.52;;;;;;;17.70;100.00;100291.78;4983601;28;20442;-72
2023/06/14 00:27:54;;;;;;;1.90;1.07;;;;;;;17.21;100.00;100219.91;4984201;28;20146;-73
2023/06/14 00:30:20;;;;;;;2.95;1.42;;;;;;;17.68;100.00;100298.94;4984857;28;20868;-72
2023/06/14 00:32:46;;;;;;;2.35;1.40;;;;;;;17.67;100.00;100292.72;4984776;28;20132;-73
2023/06/14 00:35:13;;;;;;;2.83;1.52;;;;;;;17.11;100.00;100185.75;4990765;28;20169;-73
2023/06/14 00:37:40;;;;;;;2.60;1.30;;;;;;;17.04;100.00;100180.66;4971971;28;20049;-73
2023/06/14 00:40:06;;;;;;;1.90;1.23;;;;;;;17.39;100.00;100287.41;4982691;28;20042;-73
2023/06/14 00:42:32;;;;;;;2.42;1.05;;;;;;;16.87;100.00;100178.47;4990332;28;20085;-72
2023/06/14 00:44:57;;;;;;;2.83;1.25;;;;;;;16.79;100.00;100164.59;4990618;28;20048;-72
2023/06/14 00:47:23;;;;;;;4.30;1.40;;;;;;;16.73;100.00;100147.97;4993010;28;20069;-73
2023/06/14 00:49:53;;;;;;;2.65;1.60;;;;;;;17.35;100.00;100246.00;4987592;28;20541;-72
2023/06/14 00:52:20;;;;;;;2.53;1.25;;;;;;;16.46;100.00;100146.09;4982696;28;20052;-72
2023/06/14 00:54:46;;;;;;;2.72;1.27;;;;;;;16.49;100.00;100157.50;4975003;28;20057;-72
2023/06/14 00:57:13;;;;;;;2.35;1.35;;;;;;;16.42;100.00;100115.31;4988125;28;20480;-75
2023/06/14 00:59:50;;;;;;;1.80;0.90;;;;;;;16.48;100.00;100123.97;4989491;28;20034;-73
2023/06/14 01:02:17;;;;;;;3.35;1.83;;;;;;;16.74;100.00;100160.28;5017819;28;20472;-73
2023/06/14 01:04:47;;;;;;;1.90;1.05;;;;;;;17.42;100.00;100268.75;4985581;28;20050;-74
2023/06/14 01:07:18;;;;;;;2.47;1.23;;;;;;;17.46;100.00;100277.47;4986139;28;20046;-74
2023/06/14 01:09:44;;;;;;;3.53;1.92;;;;;;;17.43;100.00;100282.88;5017972;28;20050;-73
2023/06/14 01:12:15;;;;;;;1.73;1.00;;;;;;;17.30;100.00;100272.66;4983153;28;20050;-72
2023/06/14 01:14:42;;;;;;;3.33;1.80;;;;;;;16.94;100.00;100197.72;4985892;28;20034;-73
2023/06/14 01:17:16;;;;;;;5.30;1.10;;;;;;;16.33;100.00;100165.00;4987447;28;20510;-72
2023/06/14 01:19:44;;;;;;;2.38;1.77;;;;;;;16.48;100.00;100187.53;4982117;28;20119;-75
2023/06/14 01:22:10;;;;;;;3.17;1.52;;;;;;;16.47;100.00;100202.56;4982787;28;20340;-72
2023/06/14 01:24:36;;;;;;;3.03;1.52;;;;;;;16.69;100.00;100231.97;4984159;28;20490;-72
2023/06/14 01:27:03;;;;;;;13.65;1.23;;;;;;;16.70;100.00;100209.88;4986542;28;20034;-72
2023/06/14 01:29:32;;;;;;;2.38;1.30;;;;;;;16.47;100.00;100205.22;4986440;28;20026;-74
2023/06/14 01:32:01;;;;;;;2.30;0.88;;;;;;;16.77;100.00;100261.78;5020107;28;20042;-73
2023/06/14 01:34:27;;;;;;;2.30;1.02;;;;;;;16.63;100.00;100216.25;4987422;28;20443;-72
2023/06/14 01:36:56;;;;;;;4.03;2.05;;;;;;;16.31;100.00;100149.16;4982332;28;20098;-73
2023/06/14 01:39:23;;;;;;;2.25;1.23;;;;;;;15.92;100.00;100130.81;5016704;28;20046;-72
2023/06/14 01:41:50;;;;;;;2.33;1.35;;;;;;;16.55;100.00;100219.13;4984817;28;20125;-72
2023/06/14 01:44:17;;;;;;;3.25;1.45;;;;;;;16.50;100.00;100252.81;4989947;28;20038;-72
2023/06/14 01:46:43;;;;;;;3.65;1.50;;;;;;;15.91;100.00;100160.81;4985174;28;20042;-74
2023/06/14 01:49:09;;;;;;;1.90;1.10;;;;;;;16.42;100.00;100249.50;4987572;28;20212;-72
2023/06/14 01:51:35;;;;;;;6.32;1.13;;;;;;;15.82;100.00;100156.63;4984838;28;20121;-73
2023/06/14 01:54:00;;;;;;;3.03;1.42;;;;;;;16.30;100.00;100253.34;4982256;28;20058;-72
2023/06/14 01:56:26;;;;;;;3.13;1.60;;;;;;;16.32;100.00;100233.00;4987763;28;20042;-72
2023/06/14 01:58:53;;;;;;;4.72;2.63;;;;;;;16.50;100.00;100260.75;4974316;28;20084;-72
2023/06/14 02:01:21;;;;;;;2.90;1.30;;;;;;;16.06;100.00;100201.03;4990824;28;20046;-73
2023/06/14 02:03:46;;;;;;;2.97;1.83;;;;;;;15.78;100.00;100175.25;4985757;28;20046;-75
2023/06/14 02:06:13;;;;;;;3.00;1.65;;;;;;;16.30;100.00;100271.03;4987191;28;20050;-73
2023/06/14 02:08:39;;;;;;;2.60;1.20;;;;;;;16.06;100.00;100241.63;4988378;28;20034;-73
2023/06/14 02:11:05;;;;;;;2.10;1.50;;;;;;;15.47;100.00;100127.53;4981971;28;20046;-74
2023/06/14 02:13:30;;;;;;;2.58;1.17;;;;;;;15.82;100.00;100176.94;4985711;28;20049;-73
2023/06/14 02:15:57;;;;;;;3.45;1.52;;;;;;;16.15;100.00;100259.03;5017568;28;20396;-74
2023/06/14 02:18:23;;;;;;;2.60;1.58;;;;;;;16.00;100.00;100252.34;4985985;28;20517;-73
2023/06/14 02:20:48;;;;;;;2.00;1.05;;;;;;;15.33;100.00;100134.00;4984819;28;20038;-74
2023/06/14 02:23:14;;;;;;;4.05;1.33;;;;;;;16.06;100.00;100262.78;4986578;28;20502;-75
2023/06/14 02:25:40;;;;;;;3.85;1.45;;;;;;;15.88;100.00;100250.88;4985413;28;20038;-72
2023/06/14 02:28:06;;;;;;;2.50;1.08;;;;;;;14.87;100.00;100065.53;4985076;28;20089;-75
2023/06/14 02:30:31;;;;;;;2.97;2.03;;;;;;;15.73;100.00;100201.88;4986737;28;20038;-73
2023/06/14 02:32:57;;;;;;;2.08;1.45;;;;;;;15.70;100.00;100211.59;4987615;28;20037;-74
2023/06/14 02:35:26;;;;;;;2.40;1.40;;;;;;;16.09;100.00;100262.72;4984654;28;20030;-72
2023/06/14 02:37:52;;;;;;;3.25;0.98;;;;;;;15.25;100.00;100156.25;4990990;28;20054;-74
2023/06/14 02:40:18;;;;;;;2.22;1.50;;;;;;;15.29;100.00;100168.47;4986302;28;20058;-74
2023/06/14 02:42:45;;;;;;;3.17;1.50;;;;;;;15.91;100.00;100287.84;4983006;28;20056;-73
2023/06/14 02:45:11;;;;;;;2.63;1.63;;;;;;;15.15;100.00;100174.13;4985800;28;20042;-74
2023/06/14 02:47:37;;;;;;;4.13;1.33;;;;;;;14.99;100.00;100124.25;4986670;28;20477;-74
2023/06/14 02:50:03;;;;;;;2.72;1.30;;;;;;;15.92;100.00;100247.25;4985469;28;20564;-73
2023/06/14 02:52:29;;;;;;;4.47;1.73;;;;;;;15.41;100.00;100179.66;4982724;28;20101;-74
2023/06/14 02:54:54;;;;;;;2.85;1.20;;;;;;;15.93;100.00;100262.22;4986345;28;20133;-73
2023/06/14 02:57:22;;;;;;;4.18;1.77;;;;;;;15.47;100.00;100175.13;4987427;28;20058;-75
2023/06/14 02:59:47;;;;;;;4.70;1.38;;;;;;;15.38;100.00;100187.66;4983761;28;20383;-73
2023/06/14 03:02:13;;;;;;;2.75;1.50;;;;;;;15.60;100.00;100206.53;4988072;28;20069;-74
2023/06/14 03:04:38;;;;;;;2.58;2.03;;;;;;;16.13;100.00;100303.19;4985192;28;20046;-74
2023/06/14 03:07:09;;;;;;;4.28;1.27;;;;;;;15.77;100.00;100221.16;4984269;28;20442;-72
2023/06/14 03:09:37;;;;;;;3.17;1.77;;;;;;;16.09;100.00;100264.50;4976506;28;20073;-74
2023/06/14 03:12:06;;;;;;;2.58;1.27;;;;;;;15.69;100.00;100192.22;4986894;28;20046;-73
2023/06/14 03:14:32;;;;;;;2.40;1.20;;;;;;;16.28;100.00;100320.50;4984067;28;20770;-74
2023/06/14 03:16:58;;;;;;;2.92;1.10;;;;;;;15.61;100.00;100234.69;4984422;28;20125;-73
2023/06/14 03:19:25;;;;;;;2.78;1.50;;;;;;;15.45;100.00;100200.72;4985701;28;20063;-73
2023/06/14 03:21:51;;;;;;;2.90;1.65;;;;;;;15.60;100.00;100240.06;4987405;28;20097;-73
2023/06/14 03:24:17;;;;;;;4.57;1.23;;;;;;;15.39;100.00;100189.41;4989089;28;20062;-73
2023/06/14 03:26:42;;;;;;;3.38;1.88;;;;;;;16.17;100.00;100321.59;4987976;28;20038;-75
2023/06/14 03:29:09;;;;;;;2.65;1.15;;;;;;;15.61;100.00;100234.69;4987083;28;20018;-73
2023/06/14 03:31:35;;;;;;;2.78;1.38;;;;;;;16.04;100.00;100299.00;4989276;28;20050;-72
2023/06/14 03:34:02;;;;;;;3.80;1.98;;;;;;;16.29;100.00;100320.44;4990109;28;20532;-73
2023/06/14 03:36:27;;;;;;;2.83;1.75;;;;;;;16.09;100.00;100301.56;4988408;28;20490;-75
2023/06/14 03:38:54;;;;;;;4.80;1.95;;;;;;;16.05;100.00;100290.16;4980228;28;20042;-73
2023/06/14 03:41:20;;;;;;;2.03;1.10;;;;;;;15.78;100.00;100233.47;4989919;28;20508;-74
2023/06/14 03:43:45;;;;;;;3.55;1.77;;;;;;;15.76;100.00;100216.78;4992346;28;20042;-74
2023/06/14 03:46:11;;;;;;;3.17;1.38;;;;;;;15.85;100.00;100218.31;4986653;28;20513;-75
2023/06/14 03:48:36;;;;;;;3.55;1.60;;;;;;;16.49;100.00;100333.19;4982772;28;20077;-73
2023/06/14 03:51:02;;;;;;;3.35;1.75;;;;;;;16.42;100.00;100329.81;4990293;28;21021;-73
2023/06/14 03:53:29;;;;;;;2.35;1.33;;;;;;;15.57;100.00;100166.94;4988856;28;20437;-74
2023/06/14 03:55:55;;;;;;;5.60;2.08;;;;;;;16.41;100.00;100311.31;4991020;28;20106;-74
2023/06/14 03:58:20;;;;;;;6.22;2.55;;;;;;;16.72;100.00;100332.59;4991156;28;20563;-75
2023/06/14 04:00:46;;;;;;;4.43;1.88;;;;;;;15.89;100.00;100210.25;4987147;28;20462;-72
2023/06/14 04:03:13;;;;;;;3.00;1.63;;;;;;;16.24;100.00;100267.59;4994816;28;20573;-72
2023/06/14 04:05:42;;;;;;;3.30;1.92;;;;;;;16.79;100.00;100341.28;4983559;28;20026;-76
2023/06/14 04:08:08;;;;;;;4.95;1.42;;;;;;;16.56;100.00;100316.22;4987862;28;20050;-74
2023/06/14 04:10:34;;;;;;;2.90;1.63;;;;;;;16.06;100.00;100216.91;4986432;28;20039;-74
2023/06/14 04:13:00;;;;;;;3.95;1.98;;;;;;;16.19;100.00;100219.19;4984376;28;20096;-75
2023/06/14 04:15:28;;;;;;;3.70;1.83;;;;;;;16.32;100.00;100230.34;4992314;28;20668;-75
2023/06/14 04:17:57;;;;;;;1.95;1.05;;;;;;;16.37;100.00;100231.09;4988011;28;20057;-74
2023/06/14 04:20:24;;;;;;;4.82;1.73;;;;;;;17.24;100.00;100328.53;4986344;28;20410;-73
2023/06/14 04:22:50;;;;;;;3.53;1.60;;;;;;;17.23;100.00;100332.09;4985796;28;20513;-76
2023/06/14 04:25:16;;;;;;;2.00;1.13;;;;;;;17.02;100.00;100261.09;4984677;28;20057;-77
2023/06/14 04:27:42;;;;;;;3.17;1.70;;;;;;;17.29;100.00;100288.59;4990254;28;20510;-74
2023/06/14 04:30:08;;;;;;;4.10;1.65;;;;;;;17.09;100.00;100266.22;4987230;28;20050;-73
2023/06/14 04:32:34;;;;;;;2.95;1.20;;;;;;;17.07;100.00;100257.44;4990263;28;20427;-73
2023/06/14 04:35:02;;;;;;;2.17;1.20;;;;;;;17.39;100.00;100337.81;4979642;28;20070;-75
2023/06/14 04:37:29;;;;;;;2.80;1.60;;;;;;;16.93;100.00;100262.25;4985518;28;20085;-74
2023/06/14 04:39:55;;;;;;;2.45;1.48;;;;;;;17.52;100.00;100373.69;4983312;28;20046;-74
2023/06/14 04:42:24;;;;;;;5.60;1.95;;;;;;;17.43;100.00;100351.84;4985095;28;20073;-75
2023/06/14 04:44:51;;;;;;;3.08;1.90;;;;;;;17.55;100.00;100382.47;4982036;28;20042;-75
2023/06/14 04:47:17;;;;;;;2.97;1.42;;;;;;;17.44;100.00;100374.81;4986933;28;20033;-72
2023/06/14 04:49:42;;;;;;;2.33;1.40;;;;;;;17.40;100.00;100365.22;4989351;28;20034;-73
2023/06/14 04:52:09;;;;;;;1.95;0.93;;;;;;;17.34;100.00;100366.25;4984053;28;20065;-72
2023/06/14 04:54:38;;;;;;;4.10;1.75;;;;;;;17.03;100.00;100276.97;4985536;28;20060;-73
2023/06/14 04:57:05;;;;;;;4.90;1.95;;;;;;;17.76;100.00;100371.22;5003822;28;20046;-76
2023/06/14 04:59:33;;;;;;;2.85;1.50;;;;;;;17.28;100.00;100284.22;4989026;28;20061;-74
2023/06/14 05:01:59;;;;;;;3.08;1.58;;;;;;;17.83;100.00;100399.34;4981532;28;20541;-76
2023/06/14 05:04:26;;;;;;;4.47;1.80;;;;;;;16.21;100.00;100132.66;4985145;28;20537;-73
2023/06/14 05:06:54;;;;;;;5.32;2.22;;;;;;;17.91;100.00;100400.00;4983878;28;20061;-74
2023/06/14 05:09:21;;;;;;;3.53;2.28;;;;;;;17.03;100.00;100271.66;4988197;28;20050;-75
2023/06/14 05:11:47;;;;;;;3.83;1.77;;;;;;;18.04;100.00;100410.22;4984838;28;20703;-75
2023/06/14 05:14:13;;;;;;;4.35;1.77;;;;;;;17.56;100.00;100301.94;4986547;28;20037;-72
2023/06/14 05:16:40;;;;;;;5.63;2.40;;;;;;;18.10;100.00;100418.88;4984130;28;20526;-72
2023/06/14 05:19:06;;;;;;;3.00;1.80;;;;;;;17.63;100.00;100307.03;4986075;28;20423;-73
2023/06/14 05:21:33;;;;;;;5.50;2.03;;;;;;;18.12;100.00;100405.53;4988980;28;20065;-72
2023/06/14 05:23:59;;;;;;;2.90;1.70;;;;;;;18.12;100.00;100389.59;4986558;28;20095;-74
2023/06/14 05:26:28;;;;;;;3.88;2.15;;;;;;;17.84;100.00;100349.75;4988194;28;20585;-72
2023/06/14 05:28:56;;;;;;;3.97;2.28;;;;;;;18.12;100.00;100384.28;4990252;28;20509;-73
2023/06/14 05:31:22;;;;;;;3.72;1.67;;;;;;;18.11;100.00;100399.34;4987149;28;20124;-77
2023/06/14 05:33:48;;;;;;;4.90;2.83;;;;;;;16.41;100.00;100136.53;4983023;28;20054;-77
2023/06/14 05:36:13;;;;;;;3.47;2.03;;;;;;;18.20;100.00;100413.28;4985433;28;20050;-72
2023/06/14 05:38:39;;;;;;;4.40;2.25;;;;;;;18.42;100.00;100430.25;4968547;28;20108;-69
2023/06/14 05:41:04;;;;;;;5.78;2.08;;;;;;;18.04;100.00;100344.69;4985573;28;20054;-69
2023/06/14 05:43:31;;;;;;;18.13;2.75;;;;;;;18.25;100.00;100429.94;4986270;28;20585;-68
2023/06/14 05:45:57;;;;;;;3.45;1.58;;;;;;;17.96;100.00;100328.16;4983263;28;20046;-67
2023/06/14 05:48:22;;;;;;;5.30;3.20;;;;;;;19.34;100.00;100418.31;4982428;28;20050;-66
2023/06/14 05:50:48;;;;;;;2.55;1.60;;;;;;;18.50;100.00;100324.59;4980580;28;20042;-68
2023/06/14 05:53:13;;;;;;;5.05;1.90;;;;;;;19.12;100.00;100407.56;4981156;28;20110;-66
2023/06/14 05:55:38;;;;;;;5.05;2.33;;;;;;;19.66;100.00;100387.84;4984141;28;20081;-67
2023/06/14 05:58:04;;;;;;;4.60;2.08;;;;;;;18.76;100.00;100352.06;4985115;28;20077;-66
2023/06/14 06:00:29;;;;;;;3.15;1.58;;;;;;;19.31;100.00;100431.72;4981371;28;20066;-67
2023/06/14 06:02:57;;;;;;;3.05;1.85;;;;;;;18.89;100.00;100371.13;4981954;28;20853;-68
2023/06/14 06:05:23;;;;;;;3.65;1.88;;;;;;;19.03;100.00;100403.44;4983037;28;20046;-66
2023/06/14 06:07:49;;;;;;;6.10;1.95;;;;;;;19.22;100.00;100321.16;4983070;28;20574;-67
2023/06/14 06:10:15;;;;;;;3.35;1.75;;;;;;;19.37;100.00;100347.22;4984652;28;20042;-67
2023/06/14 06:12:42;;;;;;;3.88;1.65;;;;;;;19.70;100.00;100425.91;4985580;28;20050;-67
2023/06/14 06:15:11;;;;;;;4.47;2.25;;;;;;;19.19;100.00;100323.97;4983095;28;20072;-68
2023/06/14 06:17:37;;;;;;;4.70;1.73;;;;;;;19.33;100.00;100326.09;4976464;28;20065;-68
2023/06/14 06:20:05;;;;;;;3.05;1.60;;;;;;;19.74;100.00;100318.38;4982853;28;20390;-68
2023/06/14 06:22:31;;;;;;;3.80;1.58;;;;;;;19.15;100.00;100256.72;4981776;28;20054;-67
2023/06/14 06:24:56;;;;;;;5.28;1.45;;;;;;;20.56;100.00;100422.56;4985787;28;20108;-67
2023/06/14 06:27:22;;;;;;;3.65;2.15;;;;;;;20.20;100.00;100329.81;4986263;28;20054;-68
2023/06/14 06:29:48;;;;;;;4.78;2.75;;;;;;;21.05;100.00;100410.69;4988307;28;20523;-66
2023/06/14 06:32:17;;;;;;;2.53;1.42;;;;;;;21.12;100.00;100405.94;4982038;28;20045;-67
2023/06/14 06:34:42;;;;;;;3.60;2.05;;;;;;;20.83;100.00;100372.53;4983467;28;20043;-68
2023/06/14 06:37:08;;;;;;;4.32;2.75;;;;;;;21.52;100.00;100430.00;4984154;28;20065;-68
2023/06/14 06:39:33;;;;;;;4.72;2.92;;;;;;;21.47;100.00;100431.09;4986622;28;20454;-68
2023/06/14 06:41:59;;;;;;;6.78;2.75;;;;;;;20.80;100.00;100370.00;4982929;28;20061;-68
2023/06/14 06:44:24;;;;;;;4.93;2.30;;;;;;;21.20;100.00;100395.78;4984012;28;20173;-68
2023/06/14 06:46:50;;;;;;;3.13;1.60;;;;;;;21.16;100.00;100343.47;4980766;28;20507;-66
2023/06/14 06:49:15;;;;;;;4.85;2.25;;;;;;;20.20;100.00;100349.31;4977901;28;20046;-66
2023/06/14 06:51:42;;;;;;;5.63;3.28;;;;;;;20.70;100.00;100396.19;4986090;28;20406;-68
2023/06/14 06:54:08;;;;;;;6.15;2.90;;;;;;;21.47;100.00;100428.44;4983926;28;20074;-69
2023/06/14 06:56:34;;;;;;;4.40;2.47;;;;;;;21.19;100.00;100403.84;4983045;28;20049;-69
2023/06/14 06:59:00;;;;;;;3.85;2.33;;;;;;;21.49;100.00;100437.25;4978848;28;20050;-68
2023/06/14 07:01:26;;;;;;;3.88;2.20;;;;;;;21.73;100.00;100412.13;4987370;28;20116;-68
2023/06/14 07:03:52;;;;;;;4.85;3.72;;;;;;;20.82;100.00;100418.81;4984221;28;20074;-69
2023/06/14 07:06:18;;;;;;;8.75;2.97;;;;;;;21.92;100.00;100426.38;4983485;28;20057;-68
2023/06/14 07:08:44;;;;;;;4.95;3.53;;;;;;;21.02;100.00;100340.56;4984010;28;20120;-68
2023/06/14 07:11:10;;;;;;;4.22;2.38;;;;;;;21.38;100.00;100383.44;5010837;28;20578;-68
2023/06/14 07:13:35;;;;;;;3.30;1.95;;;;;;;22.18;100.00;100411.78;4984611;28;20761;-67
2023/06/14 07:16:01;;;;;;;4.82;2.92;;;;;;;21.83;100.00;100346.69;4986869;28;20417;-68
2023/06/14 07:18:27;;;;;;;5.57;3.00;;;;;;;22.10;100.00;100365.84;4983315;28;20050;-67
2023/06/14 07:20:56;;;;;;;6.82;2.95;;;;;;;21.83;100.00;100350.22;4986449;28;20100;-68
2023/06/14 07:23:22;;;;;;;8.02;3.15;;;;;;;22.03;100.00;100400.03;4981943;28;20034;-67
2023/06/14 07:25:48;;;;;;;3.28;2.10;;;;;;;22.08;100.00;100434.56;4982489;28;20422;-66
2023/06/14 07:28:13;;;;;;;10.82;2.95;;;;;;;21.67;100.00;100355.41;4982806;28;20078;-69
2023/06/14 07:30:39;;;;;;;5.13;3.03;;;;;;;22.58;100.00;100443.78;4983822;28;20051;-67
2023/06/14 07:33:05;;;;;;;3.97;2.05;;;;;;;22.38;100.00;100365.38;4982667;28;20054;-67
2023/06/14 07:35:31;;;;;;;6.78;3.15;;;;;;;21.96;100.00;100373.66;4984710;28;20040;-67
2023/06/14 07:37:56;;;;;;;4.38;2.90;;;;;;;22.04;100.00;100350.97;4981183;28;20080;-67
2023/06/14 07:40:22;;;;;;;7.60;3.63;;;;;;;22.99;100.00;100432.81;4980494;28;20034;-67
2023/06/14 07:42:49;;;;;;;5.50;2.83;;;;;;;21.78;100.00;100356.72;4977656;28;20057;-68
2023/06/14 07:45:15;;;;;;;8.82;3.28;;;;;;;21.38;100.00;100323.84;4979699;28;20046;-67
2023/06/14 07:47:40;;;;;;;4.40;2.30;;;;;;;22.59;100.00;100326.00;4981561;28;20129;-67
2023/06/14 07:50:06;;;;;;;6.72;2.78;;;;;;;23.33;100.00;100434.63;4981103;28;20054;-68
2023/06/14 07:52:32;;;;;;;3.88;2.35;;;;;;;23.28;100.00;100429.50;4980380;28;20050;-69
2023/06/14 07:54:58;;;;;;;4.68;2.65;;;;;;;22.30;100.00;100349.72;4982993;28;20062;-74
2023/06/14 07:57:23;;;;;;;4.65;2.78;;;;;;;22.15;100.00;100337.09;4977984;28;20132;-74
2023/06/14 07:59:49;;;;;;;4.70;2.85;;;;;;;22.54;100.00;100400.25;4979499;28;20042;-75
2023/06/14 08:02:15;;;;;;;6.43;2.90;;;;;;;22.31;100.00;100431.69;4982870;28;20483;-76
2023/06/14 08:04:42;;;;;;;4.25;2.38;;;;;;;22.16;100.00;100411.00;4984219;28;20096;-75
2023/06/14 08:07:07;;;;;;;4.35;2.15;;;;;;;22.22;100.00;100416.09;4982964;28;20072;-74
2023/06/14 08:09:33;;;;;;;3.78;2.40;;;;;;;22.46;100.00;100355.19;4983884;28;20207;-74
2023/06/14 08:11:58;;;;;;;4.75;2.47;;;;;;;23.32;99.62;100425.72;4981219;28;20050;-74
2023/06/14 08:14:24;;;;;;;9.25;4.65;;;;;;;23.45;95.67;100420.56;4987111;28;20033;-75
2023/06/14 08:16:49;;;;;;;5.30;2.97;;;;;;;23.51;92.42;100266.72;4988630;28;20087;-75
2023/06/14 08:19:16;;;;;;;5.30;3.40;;;;;;;24.40;85.53;100366.19;4989070;28;20050;-74
2023/06/14 08:21:43;;;;;;;8.10;3.47;;;;;;;23.93;86.78;100442.16;4982395;28;20046;-76
2023/06/14 08:24:12;;;;;;;7.47;3.35;;;;;;;23.80;89.53;100383.84;4966749;28;20042;-75
2023/06/14 08:26:39;;;;;;;4.18;2.55;;;;;;;24.41;88.98;100400.94;4970847;28;20034;-75
2023/06/14 08:29:05;;;;;;;6.75;3.25;;;;;;;24.12;83.77;100335.59;4966937;28;20762;-75
2023/06/14 08:31:31;;;;;;;6.60;3.28;;;;;;;24.51;81.73;100400.44;4993746;28;20042;-74
2023/06/14 08:33:57;;;;;;;6.38;3.08;;;;;;;23.89;85.87;100355.69;4969533;28;20097;-73
2023/06/14 08:36:25;;;;;;;3.58;2.13;;;;;;;24.87;82.29;100413.53;4970353;28;20133;-74
2023/06/14 08:38:51;;;;;;;4.75;2.58;;;;;;;24.99;79.33;100401.19;4984564;28;20034;-73
2023/06/14 08:41:26;;;;;;;4.07;3.42;;;;;;;25.56;77.70;100403.09;4991259;28;20034;-74
2023/06/14 08:43:52;;;;;;;5.10;3.03;;;;;;;25.09;78.58;100423.84;5014056;28;20137;-74
2023/06/14 08:46:22;;;;;;;4.15;2.97;;;;;;;24.90;75.54;100370.38;4986990;28;20129;-73
2023/06/14 08:48:56;;;;;;;7.10;4.07;;;;;;;24.82;78.57;100344.03;4984640;28;20042;-74
2023/06/14 08:51:26;;;;;;;5.85;2.38;;;;;;;24.42;78.36;100289.19;4987844;28;20709;-74
2023/06/14 08:53:58;;;;;;;3.13;2.35;;;;;;;25.06;76.63;100322.00;4985332;28;20045;-75
2023/06/14 08:56:29;;;;;;;4.25;2.30;;;;;;;24.76;77.55;100390.00;4984069;28;20160;-74
2023/06/14 08:58:56;;;;;;;4.30;2.72;;;;;;;24.67;76.31;100327.97;5018452;28;20065;-73
2023/06/14 09:01:23;;;;;;;4.85;2.38;;;;;;;24.92;73.69;100312.09;4985558;28;20096;-74
2023/06/14 09:03:49;;;;;;;5.88;2.05;;;;;;;25.41;71.33;100391.50;4980489;28;20118;-74
2023/06/14 09:06:15;;;;;;;4.28;2.15;;;;;;;26.13;69.73;100338.53;4985531;28;20046;-75
2023/06/14 09:08:46;;;;;;;5.95;3.05;;;;;;;26.52;65.82;100413.00;4986970;28;20115;-75
2023/06/14 09:11:13;;;;;;;5.25;2.50;;;;;;;26.05;67.52;100398.19;4983261;28;20050;-74
2023/06/14 09:13:39;;;;;;;6.22;3.00;;;;;;;24.76;76.12;100408.78;4984465;28;20046;-75
2023/06/14 09:16:06;;;;;;;4.57;2.92;;;;;;;25.78;73.42;100410.66;4986822;28;20133;-75
2023/06/14 09:18:44;;;;;;;4.35;2.58;;;;;;;26.55;70.51;100368.06;4981788;28;20100;-74
2023/06/14 09:21:10;;;;;;;4.90;3.13;;;;;;;26.26;60.24;100292.81;4982451;28;20042;-75
2023/06/14 09:23:44;;;;;;;4.00;2.85;;;;;;;25.76;67.59;100413.47;4987424;28;20079;-74
2023/06/14 09:26:11;;;;;;;6.10;2.45;;;;;;;24.86;73.69;100309.78;4982478;28;20474;-75
2023/06/14 09:28:43;;;;;;;4.55;2.65;;;;;;;25.94;68.80;100309.25;4991236;28;20513;-74
2023/06/14 09:31:11;;;;;;;5.18;2.38;;;;;;;26.42;65.72;100389.53;4987918;28;20057;-74
2023/06/14 09:33:38;;;;;;;3.28;2.28;;;;;;;27.31;63.90;100333.16;4986392;28;20046;-73
2023/06/14 09:36:09;;;;;;;3.65;2.38;;;;;;;26.17;64.44;100275.47;4987466;28;20045;-75
2023/06/14 09:38:34;;;;;;;3.88;2.30;;;;;;;27.09;61.16;100392.16;4985901;28;20030;-73
2023/06/14 09:41:04;;;;;;;5.65;3.35;;;;;;;27.03;58.47;100307.28;4983976;28;20057;-73
2023/06/14 09:43:33;;;;;;;4.28;2.42;;;;;;;27.76;60.45;100359.59;4984728;28;20046;-74
2023/06/14 09:46:00;;;;;;;5.80;2.88;;;;;;;27.32;59.56;100390.59;4983992;28;20054;-74
2023/06/14 09:48:26;;;;;;;3.17;2.42;;;;;;;28.46;56.34;100380.56;5015590;28;20054;-74
2023/06/14 09:50:55;;;;;;;4.97;2.33;;;;;;;27.97;55.38;100306.81;4987163;28;20076;-73
2023/06/14 09:53:23;;;;;;;5.43;2.85;;;;;;;27.18;58.02;100394.22;4985975;28;20084;-74
2023/06/14 09:55:50;;;;;;;5.60;3.83;;;;;;;26.21;62.06;100376.53;4984486;28;20054;-73
2023/06/14 09:58:16;;;;;;;3.35;2.35;;;;;;;25.61;64.47;100302.41;4986213;28;20042;-74
2023/06/14 10:00:44;;;;;;;4.07;2.55;;;;;;;25.68;64.91;100309.13;4983931;28;20042;-74
2023/06/14 10:03:14;;;;;;;3.83;2.38;;;;;;;26.36;63.28;100390.78;4985561;28;20042;-76
2023/06/14 10:05:43;;;;;;;3.80;1.60;;;;;;;26.92;60.01;100356.50;4985564;28;20803;-74
2023/06/14 10:08:13;;;;;;;7.68;2.85;;;;;;;27.93;57.04;100344.91;4986450;28;20106;-73
2023/06/14 10:10:40;;;;;;;4.38;2.42;;;;;;;28.75;56.70;100347.75;4980986;28;20050;-74
2023/06/14 10:13:07;;;;;;;3.42;2.53;;;;;;;27.97;55.88;100366.16;4982579;28;20108;-75
2023/06/14 10:15:42;;;;;;;3.47;2.10;;;;;;;27.43;57.42;100376.38;4985504;28;20072;-75
2023/06/14 10:18:40;;;;;;;2.55;1.55;;;;;;;28.14;55.93;100375.72;4985676;28;20505;-74
2023/06/14 10:21:42;;;;;;;4.38;2.67;;;;;;;28.28;53.44;100373.81;4980723;28;20042;-74
2023/06/14 10:24:12;;;;;;;4.15;2.70;;;;;;;26.99;55.70;100338.06;4987781;28;20058;-75
2023/06/14 10:26:51;;;;;;;3.75;2.15;;;;;;;26.52;55.99;100304.50;4985172;28;20042;-74
2023/06/14 10:29:17;;;;;;;3.70;2.00;;;;;;;25.99;60.35;100334.06;4985513;28;20054;-76
2023/06/14 10:31:45;;;;;;;8.00;1.98;;;;;;;24.98;63.54;100262.53;4987265;28;20051;-75
2023/06/14 10:34:12;;;;;;;3.50;2.20;;;;;;;25.39;64.66;100332.47;4983525;28;20145;-75
2023/06/14 10:36:41;;;;;;;3.60;2.47;;;;;;;25.82;63.56;100286.72;4983714;28;20072;-74
2023/06/14 10:39:11;;;;;;;4.05;2.63;;;;;;;25.84;62.76;100303.59;4986504;28;20034;-75
2023/06/14 10:41:40;;;;;;;2.60;1.23;;;;;;;26.25;62.64;100366.44;4983963;28;20042;-75
2023/06/14 10:44:14;;;;;;;3.72;2.25;;;;;;;25.66;65.01;100375.56;4982337;28;20065;-76
2023/06/14 10:46:47;;;;;;;3.25;2.30;;;;;;;25.09;68.44;100348.66;4965966;28;20077;-74
2023/06/14 10:49:17;;;;;;;3.63;2.35;;;;;;;26.47;63.34;100377.47;4983525;28;20050;-74
2023/06/14 10:51:49;;;;;;;3.08;1.65;;;;;;;25.61;67.19;100355.28;4983899;28;20042;-73
2023/06/14 10:54:20;;;;;;;3.47;2.10;;;;;;;25.70;67.84;100354.72;4986731;28;20146;-74
2023/06/14 10:56:50;;;;;;;3.40;2.28;;;;;;;26.40;65.91;100369.94;4983083;28;20460;-74
2023/06/14 10:59:16;;;;;;;4.10;2.10;;;;;;;26.07;61.46;100269.84;4985136;28;20364;-75
2023/06/14 11:01:58;;;;;;;2.72;2.00;;;;;;;26.81;62.02;100336.66;4984558;28;20121;-73
2023/06/14 11:04:46;;;;;;;3.55;2.08;;;;;;;25.86;64.71;100239.88;5012179;28;20888;-74
2023/06/14 11:08:07;;;;;;;4.55;2.35;;;;;;;26.12;61.03;100188.84;4977896;28;20473;-75
2023/06/14 11:10:45;;;;;;;3.35;1.95;;;;;;;27.13;61.18;100377.53;4960597;28;20047;-75
2023/06/14 11:13:12;;;;;;;3.78;2.13;;;;;;;27.11;60.49;100352.53;4952730;28;20906;-73
2023/06/14 11:15:44;;;;;;;3.03;1.95;;;;;;;26.76;61.91;100355.81;4972593;28;20097;-74
2023/06/14 11:18:10;;;;;;;4.28;2.33;;;;;;;26.21;63.17;100294.97;4994649;28;20888;-75
2023/06/14 11:20:36;;;;;;;4.45;2.85;;;;;;;26.45;63.22;100363.25;4988511;28;20026;-75